Time;durP1;ratioP1;P1;durP2;ratioP2;P2;SDS_P1;SDS_P2;PMS_P1;PMS_P2;Temp;Humidity;BMP_temperature;BMP_pressure;BME280_temperature;BME280_humidity;BME280_pressure;Samples;Min_cycle;Max_cycle;Signal;HPM_P1;HPM_P2
2022/09/28 00:01:16;;;;;;;;;;;11.10;99.90;;;;;;5088625;28;19943;-75
2022/09/28 00:03:42;;;;;;;;;;;11.10;99.90;;;;;;5086281;28;19935;-75
2022/09/28 00:06:09;;;;;;;;;;;11.10;99.90;;;;;;5083976;28;19913;-75
2022/09/28 00:08:34;;;;;;;;;;;11.00;99.90;;;;;;5088004;28;19919;-75
2022/09/28 00:11:00;;;;;;;;;;;10.90;99.90;;;;;;5090011;28;19912;-75
2022/09/28 00:13:28;;;;;;;;;;;10.80;99.90;;;;;;5079855;28;19920;-75
2022/09/28 00:16:01;;;;;;;;;;;10.80;99.90;;;;;;5077519;28;20354;-75
2022/09/28 00:18:27;;;;;;;;;;;10.90;99.90;;;;;;5071287;28;19919;-74
2022/09/28 00:20:59;;;;;;;;;;;10.80;99.90;;;;;;5083818;28;20011;-75
2022/09/28 00:23:25;;;;;;;;;;;10.80;99.90;;;;;;5072192;28;19972;-75
2022/09/28 00:25:50;;;;;;;;;;;10.80;99.90;;;;;;5081250;28;19958;-75
2022/09/28 00:28:16;;;;;;;;;;;10.70;99.90;;;;;;5083578;28;19912;-75
2022/09/28 00:30:41;;;;;;;;;;;10.70;99.90;;;;;;5085815;28;20387;-75
2022/09/28 00:33:07;;;;;;;;;;;10.60;99.90;;;;;;5081944;28;20487;-75
2022/09/28 00:35:33;;;;;;;;;;;10.60;99.90;;;;;;5084868;28;19916;-75
2022/09/28 00:38:01;;;;;;;;;;;10.70;99.90;;;;;;5078727;28;19920;-75
2022/09/28 00:40:26;;;;;;;;;;;10.70;99.90;;;;;;5080265;28;19916;-75
2022/09/28 00:42:52;;;;;;;;;;;10.70;99.90;;;;;;5080484;28;20015;-75
2022/09/28 00:45:17;;;;;;;;;;;10.70;99.90;;;;;;5082636;28;19948;-74
2022/09/28 00:47:52;;;;;;;;;;;10.50;99.90;;;;;;5080644;28;20761;-75
2022/09/28 00:50:27;;;;;;;;;;;10.60;99.90;;;;;;5078582;28;20353;-75
2022/09/28 00:52:58;;;;;;;;;;;10.60;99.90;;;;;;5075276;28;19966;-75
2022/09/28 00:55:27;;;;;;;;;;;10.70;99.90;;;;;;5082090;28;20261;-75
2022/09/28 00:57:56;;;;;;;;;;;10.70;99.90;;;;;;5077458;28;19999;-75
2022/09/28 01:00:21;;;;;;;;;;;10.70;99.90;;;;;;5084224;28;19985;-75
2022/09/28 01:02:47;;;;;;;;;;;10.60;99.90;;;;;;5075923;28;20269;-75
2022/09/28 01:05:13;;;;;;;;;;;10.40;99.90;;;;;;5075261;28;19912;-75
2022/09/28 01:07:39;;;;;;;;;;;10.30;99.90;;;;;;5080489;28;20369;-75
2022/09/28 01:10:06;;;;;;;;;;;10.30;99.90;;;;;;5082582;28;19925;-74
2022/09/28 01:12:31;;;;;;;;;;;10.40;99.90;;;;;;5084401;28;19919;-74
2022/09/28 01:14:59;;;;;;;;;;;10.40;99.90;;;;;;5080177;28;19916;-75
2022/09/28 01:17:27;;;;;;;;;;;10.50;99.90;;;;;;5081986;28;19967;-75
2022/09/28 01:20:03;;;;;;;;;;;10.50;99.90;;;;;;5085537;28;20000;-75
2022/09/28 01:22:40;;;;;;;;;;;10.50;99.90;;;;;;5084875;28;20014;-75
2022/09/28 01:25:17;;;;;;;;;;;10.40;99.90;;;;;;5076727;28;19917;-74
2022/09/28 01:27:43;;;;;;;;;;;10.40;99.90;;;;;;5083439;28;19912;-75
2022/09/28 01:30:14;;;;;;;;;;;10.40;99.90;;;;;;5087078;28;20388;-74
2022/09/28 01:32:49;;;;;;;;;;;10.40;99.90;;;;;;5072947;28;19958;-75
2022/09/28 01:35:27;;;;;;;;;;;10.40;99.90;;;;;;5081346;28;19939;-74
2022/09/28 01:37:56;;;;;;;;;;;10.40;99.90;;;;;;5096796;28;19912;-73
2022/09/28 01:40:23;;;;;;;;;;;10.20;99.90;;;;;;5054587;28;19926;-76
2022/09/28 01:42:54;;;;;;;;;;;10.20;99.90;;;;;;5091729;28;19924;-75
2022/09/28 01:45:26;;;;;;;;;;;10.20;99.90;;;;;;5079918;28;19924;-75
2022/09/28 01:47:54;;;;;;;;;;;10.10;99.90;;;;;;5079214;28;19911;-74
2022/09/28 01:50:21;;;;;;;;;;;10.10;99.90;;;;;;5082802;28;20069;-75
2022/09/28 01:52:50;;;;;;;;;;;10.10;99.90;;;;;;5080233;28;19935;-75
2022/09/28 01:55:19;;;;;;;;;;;10.00;99.90;;;;;;5085104;28;19915;-72
2022/09/28 01:58:07;;;;;;;;;;;10.00;99.90;;;;;;5080301;28;19998;-75
2022/09/28 02:00:34;;;;;;;;;;;10.00;99.90;;;;;;5073747;28;19917;-75
2022/09/28 02:03:12;;;;;;;;;;;10.00;99.90;;;;;;5080267;28;19920;-75
2022/09/28 02:05:39;;;;;;;;;;;10.00;99.90;;;;;;5074341;28;20003;-75
2022/09/28 02:08:14;;;;;;;;;;;10.00;99.90;;;;;;5079251;28;19920;-75
2022/09/28 02:10:42;;;;;;;;;;;10.00;99.90;;;;;;5078672;28;19912;-75
2022/09/28 02:13:13;;;;;;;;;;;10.00;99.90;;;;;;5082189;28;20391;-75
2022/09/28 02:15:48;;;;;;;;;;;10.10;99.90;;;;;;5075962;28;19923;-75
2022/09/28 02:18:13;;;;;;;;;;;10.10;99.90;;;;;;5079627;28;20458;-74
2022/09/28 02:20:40;;;;;;;;;;;10.10;99.90;;;;;;5073099;28;19908;-74
2022/09/28 02:23:06;;;;;;;;;;;10.00;99.90;;;;;;5080586;28;19918;-75
2022/09/28 02:25:42;;;;;;;;;;;10.00;99.90;;;;;;5065455;28;19912;-74
2022/09/28 02:28:09;;;;;;;;;;;10.00;99.90;;;;;;5076747;28;19927;-75
2022/09/28 02:30:36;;;;;;;;;;;10.00;99.90;;;;;;5078782;28;19912;-76
2022/09/28 02:33:07;;;;;;;;;;;10.00;99.90;;;;;;5078033;28;20463;-76
2022/09/28 02:35:34;;;;;;;;;;;10.00;99.90;;;;;;5078705;28;20373;-73
2022/09/28 02:37:59;;;;;;;;;;;10.00;99.90;;;;;;5079849;28;20266;-74
2022/09/28 02:40:28;;;;;;;;;;;9.90;99.90;;;;;;5084629;28;19926;-74
2022/09/28 02:42:57;;;;;;;;;;;9.80;99.90;;;;;;5078065;28;20328;-76
2022/09/28 02:45:30;;;;;;;;;;;9.80;99.90;;;;;;5077446;28;20365;-74
2022/09/28 02:48:14;;;;;;;;;;;9.80;99.90;;;;;;5081243;28;19919;-75
2022/09/28 02:50:43;;;;;;;;;;;9.70;99.90;;;;;;5084524;28;19908;-75
2022/09/28 02:53:24;;;;;;;;;;;9.70;99.90;;;;;;5075604;28;19920;-75
2022/09/28 02:56:03;;;;;;;;;;;9.60;99.90;;;;;;5075732;28;20288;-74
2022/09/28 02:59:01;;;;;;;;;;;9.50;99.90;;;;;;5080277;28;19916;-75
2022/09/28 03:01:38;;;;;;;;;;;9.40;99.90;;;;;;5058385;28;20393;-74
2022/09/28 03:04:22;;;;;;;;;;;9.40;99.90;;;;;;5084890;28;19973;-75
2022/09/28 03:06:58;;;;;;;;;;;9.40;99.90;;;;;;5083060;28;20411;-75
2022/09/28 03:09:28;;;;;;;;;;;9.30;99.90;;;;;;5079963;28;19916;-76
2022/09/28 03:11:56;;;;;;;;;;;9.30;99.90;;;;;;5085772;28;19916;-75
2022/09/28 03:14:21;;;;;;;;;;;9.30;99.90;;;;;;5071872;28;20387;-74
2022/09/28 03:16:47;;;;;;;;;;;9.40;99.90;;;;;;5080191;28;20023;-75
2022/09/28 03:19:14;;;;;;;;;;;9.30;99.90;;;;;;5079516;28;19912;-75
2022/09/28 03:21:40;;;;;;;;;;;9.30;99.90;;;;;;5077852;28;19924;-75
2022/09/28 03:24:09;;;;;;;;;;;9.20;99.90;;;;;;5079194;28;20328;-76
2022/09/28 03:26:38;;;;;;;;;;;9.20;99.90;;;;;;5078078;28;19958;-75
2022/09/28 03:29:04;;;;;;;;;;;9.20;99.90;;;;;;5086051;28;19916;-75
2022/09/28 03:31:29;;;;;;;;;;;9.20;99.90;;;;;;5080155;28;19924;-75
2022/09/28 03:33:55;;;;;;;;;;;9.40;99.90;;;;;;5080902;28;19991;-75
2022/09/28 03:36:20;;;;;;;;;;;9.50;99.90;;;;;;5084577;28;20061;-75
2022/09/28 03:38:46;;;;;;;;;;;9.50;99.90;;;;;;5083296;28;19912;-75
2022/09/28 03:41:12;;;;;;;;;;;9.50;99.90;;;;;;5073226;28;19924;-75
2022/09/28 03:43:37;;;;;;;;;;;9.40;99.90;;;;;;5088926;28;20416;-74
2022/09/28 03:46:03;;;;;;;;;;;9.40;99.90;;;;;;5078281;28;19912;-75
2022/09/28 03:48:30;;;;;;;;;;;9.30;99.90;;;;;;5086966;28;19917;-75
2022/09/28 03:50:56;;;;;;;;;;;9.20;99.90;;;;;;5051901;28;19975;-75
2022/09/28 03:53:21;;;;;;;;;;;9.20;99.90;;;;;;5079536;28;19959;-74
2022/09/28 03:55:47;;;;;;;;;;;9.10;99.90;;;;;;5085286;28;19931;-75
2022/09/28 03:58:13;;;;;;;;;;;9.00;99.90;;;;;;5084731;28;19944;-75
2022/09/28 04:00:38;;;;;;;;;;;9.10;99.90;;;;;;5070700;28;19931;-75
2022/09/28 04:03:04;;;;;;;;;;;9.00;99.90;;;;;;5070271;28;19971;-75
2022/09/28 04:05:30;;;;;;;;;;;9.00;99.90;;;;;;5090107;28;20331;-76
2022/09/28 04:07:56;;;;;;;;;;;9.10;99.90;;;;;;5088275;28;19954;-75
2022/09/28 04:10:22;;;;;;;;;;;9.10;99.90;;;;;;5086762;28;19916;-75
2022/09/28 04:12:49;;;;;;;;;;;9.00;99.90;;;;;;5085411;28;19920;-76
2022/09/28 04:15:15;;;;;;;;;;;9.10;99.90;;;;;;5088397;28;19933;-75
2022/09/28 04:17:41;;;;;;;;;;;9.00;99.90;;;;;;5094562;28;20054;-75
2022/09/28 04:20:07;;;;;;;;;;;9.00;99.90;;;;;;5087785;28;19928;-75
2022/09/28 04:22:32;;;;;;;;;;;8.90;99.90;;;;;;5087037;28;19948;-75
2022/09/28 04:24:58;;;;;;;;;;;8.70;99.90;;;;;;5090234;28;19923;-74
2022/09/28 04:30:08;;;;;;;;;;;8.60;99.90;;;;;;5105503;28;19945;-75
2022/09/28 04:32:34;;;;;;;;;;;8.80;99.90;;;;;;5090400;28;19903;-75
2022/09/28 04:34:59;;;;;;;;;;;8.90;99.90;;;;;;5104308;28;19912;-76
2022/09/28 04:37:25;;;;;;;;;;;8.90;99.90;;;;;;5101293;28;20018;-76
2022/09/28 04:39:50;;;;;;;;;;;9.00;99.90;;;;;;5086263;28;19916;-76
2022/09/28 04:42:16;;;;;;;;;;;9.00;99.90;;;;;;5090144;28;20067;-76
2022/09/28 04:44:41;;;;;;;;;;;8.90;99.90;;;;;;5089113;28;19919;-75
2022/09/28 04:47:07;;;;;;;;;;;8.80;99.90;;;;;;5102413;28;19916;-76
2022/09/28 04:49:35;;;;;;;;;;;8.60;99.90;;;;;;5084975;28;19916;-76
2022/09/28 04:52:01;;;;;;;;;;;8.50;99.90;;;;;;5083131;28;19932;-77
2022/09/28 04:54:26;;;;;;;;;;;8.50;99.90;;;;;;5089440;28;19913;-74
2022/09/28 04:56:53;;;;;;;;;;;8.40;99.90;;;;;;5084455;28;19928;-76
2022/09/28 04:59:18;;;;;;;;;;;8.30;99.90;;;;;;5099081;28;19951;-76
2022/09/28 05:01:44;;;;;;;;;;;8.40;99.90;;;;;;5088239;28;19920;-74
2022/09/28 05:04:09;;;;;;;;;;;8.50;99.90;;;;;;5083875;28;20318;-75
2022/09/28 05:06:35;;;;;;;;;;;8.40;99.90;;;;;;5098628;28;19946;-76
2022/09/28 05:09:00;;;;;;;;;;;8.40;99.90;;;;;;5097855;28;19916;-76
2022/09/28 05:11:26;;;;;;;;;;;8.50;99.90;;;;;;5088854;28;19920;-76
2022/09/28 05:13:51;;;;;;;;;;;8.50;99.90;;;;;;5088351;28;19913;-75
2022/09/28 05:16:19;;;;;;;;;;;8.50;99.90;;;;;;5087314;28;19912;-76
2022/09/28 05:18:44;;;;;;;;;;;8.60;99.90;;;;;;5087375;28;19916;-76
2022/09/28 05:21:14;;;;;;;;;;;8.70;99.90;;;;;;5082516;28;20384;-76
2022/09/28 05:23:40;;;;;;;;;;;8.70;99.90;;;;;;5086131;28;19965;-77
2022/09/28 05:26:06;;;;;;;;;;;8.50;99.90;;;;;;5076071;28;19927;-75
2022/09/28 05:28:32;;;;;;;;;;;8.30;99.90;;;;;;5085468;28;19998;-74
2022/09/28 05:30:59;;;;;;;;;;;8.10;99.90;;;;;;5086057;28;20387;-75
2022/09/28 05:33:25;;;;;;;;;;;8.10;99.90;;;;;;5078748;28;19996;-75
2022/09/28 05:35:51;;;;;;;;;;;8.30;99.90;;;;;;5082124;28;20420;-75
2022/09/28 05:38:18;;;;;;;;;;;8.40;99.90;;;;;;5079947;28;20475;-75
2022/09/28 05:40:43;;;;;;;;;;;8.60;99.90;;;;;;5082123;28;19912;-75
2022/09/28 05:43:09;;;;;;;;;;;8.60;99.90;;;;;;5081754;28;19939;-76
2022/09/28 05:45:34;;;;;;;;;;;8.70;99.90;;;;;;5082654;28;20022;-75
2022/09/28 05:48:00;;;;;;;;;;;8.80;99.90;;;;;;5081901;28;19969;-76
2022/09/28 05:50:26;;;;;;;;;;;8.90;99.90;;;;;;5089301;28;19975;-74
2022/09/28 05:53:02;;;;;;;;;;;9.00;99.90;;;;;;5080422;28;19912;-75
2022/09/28 05:55:28;;;;;;;;;;;9.00;99.90;;;;;;5082401;28;19923;-76
2022/09/28 05:57:57;;;;;;;;;;;9.00;99.90;;;;;;5087802;28;19916;-76
2022/09/28 06:00:22;;;;;;;;;;;9.00;99.90;;;;;;5094838;28;19916;-76
2022/09/28 06:03:17;;;;;;;;;;;9.10;99.90;;;;;;5089341;28;20403;-74
2022/09/28 06:05:44;;;;;;;;;;;9.10;99.90;;;;;;5074806;28;19919;-76
2022/09/28 06:08:09;;;;;;;;;;;8.70;99.90;;;;;;5093063;28;19912;-76
2022/09/28 06:10:35;;;;;;;;;;;8.40;99.90;;;;;;5093461;28;19935;-77
2022/09/28 06:13:00;;;;;;;;;;;8.10;99.90;;;;;;5090987;28;19923;-75
2022/09/28 06:15:27;;;;;;;;;;;8.10;99.90;;;;;;5096525;28;19913;-76
2022/09/28 06:17:57;;;;;;;;;;;7.90;99.90;;;;;;5093428;28;19912;-75
2022/09/28 06:20:22;;;;;;;;;;;7.90;99.90;;;;;;5092826;28;19950;-77
2022/09/28 06:22:51;;;;;;;;;;;7.70;99.90;;;;;;5086609;28;19917;-76
2022/09/28 06:25:17;;;;;;;;;;;7.60;99.90;;;;;;5091452;28;19948;-76
2022/09/28 06:27:42;;;;;;;;;;;7.50;99.90;;;;;;5100696;28;19921;-75
2022/09/28 06:30:08;;;;;;;;;;;7.50;99.90;;;;;;5093416;28;19909;-76
2022/09/28 06:32:35;;;;;;;;;;;7.50;99.90;;;;;;5100047;28;19912;-75
2022/09/28 06:35:01;;;;;;;;;;;7.50;99.90;;;;;;5080782;28;19916;-76
2022/09/28 06:37:27;;;;;;;;;;;7.60;99.90;;;;;;5087084;28;19913;-77
2022/09/28 06:39:53;;;;;;;;;;;7.60;99.90;;;;;;5078698;28;20454;-76
2022/09/28 06:42:19;;;;;;;;;;;7.70;99.90;;;;;;5083356;28;19932;-76
2022/09/28 06:44:45;;;;;;;;;;;7.50;99.90;;;;;;5082510;28;19977;-75
2022/09/28 06:47:11;;;;;;;;;;;7.50;99.90;;;;;;5074363;28;19925;-77
2022/09/28 06:49:37;;;;;;;;;;;7.50;99.90;;;;;;5083032;28;20377;-76
2022/09/28 06:52:02;;;;;;;;;;;7.50;99.90;;;;;;5079671;28;20015;-79
2022/09/28 06:54:28;;;;;;;;;;;7.50;99.90;;;;;;5076950;28;19916;-75
2022/09/28 06:56:53;;;;;;;;;;;7.40;99.90;;;;;;5072192;28;20152;-76
2022/09/28 06:59:21;;;;;;;;;;;7.50;99.90;;;;;;5084534;28;21380;-76
2022/09/28 07:01:46;;;;;;;;;;;7.50;99.90;;;;;;5075743;28;19986;-76
2022/09/28 07:04:12;;;;;;;;;;;7.60;99.90;;;;;;5087646;28;19927;-76
2022/09/28 07:06:37;;;;;;;;;;;7.60;99.90;;;;;;5093073;28;19923;-77
2022/09/28 07:09:05;;;;;;;;;;;7.60;99.90;;;;;;5089971;28;19988;-76
2022/09/28 07:11:38;;;;;;;;;;;7.70;99.90;;;;;;5090448;28;19916;-75
2022/09/28 07:14:04;;;;;;;;;;;7.80;99.90;;;;;;5085253;28;19920;-75
2022/09/28 07:16:29;;;;;;;;;;;7.90;99.90;;;;;;5094514;28;19942;-76
2022/09/28 07:18:55;;;;;;;;;;;7.90;99.90;;;;;;5095337;28;20172;-76
2022/09/28 07:21:20;;;;;;;;;;;7.90;99.90;;;;;;5097799;28;19924;-75
2022/09/28 07:23:47;;;;;;;;;;;7.90;99.90;;;;;;5103492;28;19923;-76
2022/09/28 07:26:13;;;;;;;;;;;8.00;99.90;;;;;;5097560;28;19931;-75
2022/09/28 07:28:40;;;;;;;;;;;8.00;99.90;;;;;;5098322;28;19923;-77
2022/09/28 07:31:06;;;;;;;;;;;8.00;99.90;;;;;;5099546;28;19927;-77
2022/09/28 07:33:32;;;;;;;;;;;8.00;99.90;;;;;;5100226;28;19912;-78
2022/09/28 07:35:57;;;;;;;;;;;8.00;99.90;;;;;;5094483;28;19970;-77
2022/09/28 07:38:24;;;;;;;;;;;8.10;99.90;;;;;;5098578;28;20337;-77
2022/09/28 07:43:34;;;;;;;;;;;8.20;99.90;;;;;;5097311;28;19923;-78
2022/09/28 07:46:00;;;;;;;;;;;8.40;99.90;;;;;;5099706;28;19912;-77
2022/09/28 07:48:26;;;;;;;;;;;8.50;99.90;;;;;;5096807;28;19912;-75
2022/09/28 07:50:52;;;;;;;;;;;8.50;99.90;;;;;;5092381;28;20009;-76
2022/09/28 07:53:19;;;;;;;;;;;8.70;99.90;;;;;;5095742;28;19939;-76
2022/09/28 07:55:54;;;;;;;;;;;8.90;99.90;;;;;;5103957;28;19991;-76
2022/09/28 07:58:20;;;;;;;;;;;9.10;99.90;;;;;;5092800;28;19921;-76
2022/09/28 08:00:47;;;;;;;;;;;9.30;99.90;;;;;;5092635;28;19914;-76
2022/09/28 08:03:16;;;;;;;;;;;9.40;99.90;;;;;;5092225;28;19960;-77
2022/09/28 08:05:42;;;;;;;;;;;9.60;99.90;;;;;;5098566;28;19934;-76
2022/09/28 08:08:08;;;;;;;;;;;9.80;99.90;;;;;;5063537;28;19916;-77
2022/09/28 08:10:34;;;;;;;;;;;9.70;99.90;;;;;;5090593;28;19912;-77
2022/09/28 08:13:02;;;;;;;;;;;9.80;99.90;;;;;;5086055;28;19928;-77
2022/09/28 08:15:28;;;;;;;;;;;9.80;99.90;;;;;;5097454;28;19912;-78
2022/09/28 08:17:53;;;;;;;;;;;9.80;99.90;;;;;;5085036;28;19908;-77
2022/09/28 08:23:07;;;;;;;;;;;10.10;99.90;;;;;;5088823;28;19988;-76
2022/09/28 08:25:35;;;;;;;;;;;10.10;99.90;;;;;;5091323;28;20244;-77
2022/09/28 08:28:01;;;;;;;;;;;9.90;99.90;;;;;;5091131;28;19908;-76
2022/09/28 08:30:26;;;;;;;;;;;10.00;99.90;;;;;;5088274;28;19912;-76
2022/09/28 08:32:52;;;;;;;;;;;10.10;99.90;;;;;;5094134;28;19950;-77
2022/09/28 08:35:18;;;;;;;;;;;10.20;99.90;;;;;;5107963;28;19919;-79
2022/09/28 08:37:48;;;;;;;;;;;10.50;99.90;;;;;;5094922;28;19952;-78
2022/09/28 08:40:17;;;;;;;;;;;10.80;99.90;;;;;;5086899;28;19919;-76
2022/09/28 08:42:44;;;;;;;;;;;11.00;99.90;;;;;;5085128;28;20010;-75
2022/09/28 08:45:18;;;;;;;;;;;11.20;99.90;;;;;;5072983;28;20338;-76
2022/09/28 08:50:45;;;;;;;;;;;11.40;99.90;;;;;;5095220;28;19923;-76
2022/09/28 08:53:29;;;;;;;;;;;11.70;99.90;;;;;;5081741;28;19968;-76
2022/09/28 08:55:55;;;;;;;;;;;12.00;99.90;;;;;;5078565;28;19993;-79
2022/09/28 08:58:27;;;;;;;;;;;12.40;99.90;;;;;;5082409;28;19917;-77
2022/09/28 09:00:53;;;;;;;;;;;12.40;99.90;;;;;;5082927;28;19916;-77
2022/09/28 09:03:26;;;;;;;;;;;12.60;99.90;;;;;;5079368;28;19986;-77
2022/09/28 09:06:02;;;;;;;;;;;12.80;99.90;;;;;;5090022;28;19995;-76
2022/09/28 09:08:28;;;;;;;;;;;12.90;99.90;;;;;;5083063;28;19913;-76
2022/09/28 09:11:05;;;;;;;;;;;12.90;99.90;;;;;;5079213;28;19912;-76
2022/09/28 09:13:44;;;;;;;;;;;12.90;99.90;;;;;;5081040;28;19912;-77
2022/09/28 09:16:35;;;;;;;;;;;13.10;99.90;;;;;;5084942;28;19912;-75
2022/09/28 09:19:21;;;;;;;;;;;13.10;99.90;;;;;;5104643;28;19900;-77
2022/09/28 09:21:53;;;;;;;;;;;13.10;99.90;;;;;;5043629;28;19927;-76
2022/09/28 09:24:26;;;;;;;;;;;13.20;99.90;;;;;;5081427;28;19916;-76
2022/09/28 09:27:04;;;;;;;;;;;13.20;99.90;;;;;;5098429;28;19912;-76
2022/09/28 09:29:53;;;;;;;;;;;13.10;99.90;;;;;;5079465;28;20071;-77
2022/09/28 09:32:29;;;;;;;;;;;13.20;99.90;;;;;;5094547;28;20047;-77
2022/09/28 09:35:05;;;;;;;;;;;13.30;99.90;;;;;;5084932;28;19912;-76
2022/09/28 09:37:49;;;;;;;;;;;13.50;99.90;;;;;;5087696;28;19908;-76
2022/09/28 09:40:23;;;;;;;;;;;13.50;99.90;;;;;;5098697;28;19913;-77
2022/09/28 09:42:55;;;;;;;;;;;13.50;99.90;;;;;;5098005;28;19970;-77
2022/09/28 09:45:23;;;;;;;;;;;13.40;99.90;;;;;;5074174;28;20198;-76
2022/09/28 09:47:59;;;;;;;;;;;13.40;99.90;;;;;;5074661;28;19912;-77
2022/09/28 09:50:28;;;;;;;;;;;13.40;99.90;;;;;;5077897;28;19998;-75
2022/09/28 09:53:17;;;;;;;;;;;13.50;99.90;;;;;;5073658;28;19924;-77
2022/09/28 09:55:44;;;;;;;;;;;13.60;99.90;;;;;;5067092;28;20004;-76
2022/09/28 09:58:23;;;;;;;;;;;13.70;99.90;;;;;;5077119;28;19940;-77
2022/09/28 10:00:49;;;;;;;;;;;13.80;99.90;;;;;;5082027;28;20569;-76
2022/09/28 10:03:23;;;;;;;;;;;13.90;99.90;;;;;;5085967;28;19956;-76
2022/09/28 10:06:04;;;;;;;;;;;13.80;99.90;;;;;;5080888;28;19932;-76
2022/09/28 10:08:33;;;;;;;;;;;13.70;99.90;;;;;;5095240;28;19905;-76
2022/09/28 10:11:07;;;;;;;;;;;13.70;99.90;;;;;;5098168;28;19916;-77
2022/09/28 10:13:33;;;;;;;;;;;13.70;99.90;;;;;;5090568;28;19974;-75
2022/09/28 10:15:59;;;;;;;;;;;13.90;99.90;;;;;;5089033;28;19912;-76
2022/09/28 10:18:25;;;;;;;;;;;14.10;99.90;;;;;;5095270;28;19916;-77
2022/09/28 10:20:51;;;;;;;;;;;14.20;99.90;;;;;;5088685;28;19912;-76
2022/09/28 10:23:22;;;;;;;;;;;14.50;99.90;;;;;;5089174;28;19943;-76
2022/09/28 10:25:50;;;;;;;;;;;14.90;99.90;;;;;;5083591;28;19912;-76
2022/09/28 10:28:20;;;;;;;;;;;15.10;99.90;;;;;;5087586;28;19923;-76
2022/09/28 10:30:45;;;;;;;;;;;15.20;99.90;;;;;;5085157;28;19913;-76
2022/09/28 10:33:28;;;;;;;;;;;15.00;99.90;;;;;;5084894;28;19912;-77
2022/09/28 10:35:54;;;;;;;;;;;14.60;99.90;;;;;;5080751;28;19916;-75
2022/09/28 10:38:21;;;;;;;;;;;14.70;99.90;;;;;;5092812;28;20007;-78
2022/09/28 10:40:49;;;;;;;;;;;14.70;99.90;;;;;;5089086;28;19913;-77
2022/09/28 10:43:22;;;;;;;;;;;14.60;99.90;;;;;;5087430;28;20399;-77
2022/09/28 10:45:58;;;;;;;;;;;14.40;99.90;;;;;;5079482;28;20443;-77
2022/09/28 10:48:23;;;;;;;;;;;14.30;99.90;;;;;;5083823;28;19913;-78
2022/09/28 10:51:03;;;;;;;;;;;14.50;99.90;;;;;;5081864;28;21355;-76
2022/09/28 10:53:28;;;;;;;;;;;14.70;99.90;;;;;;5079927;28;19927;-76
2022/09/28 10:56:02;;;;;;;;;;;14.90;99.90;;;;;;5079223;28;19946;-76
2022/09/28 10:58:39;;;;;;;;;;;15.30;95.40;;;;;;5068887;28;20421;-78
2022/09/28 11:01:08;;;;;;;;;;;15.40;92.30;;;;;;5067262;28;19955;-75
2022/09/28 11:03:37;;;;;;;;;;;15.30;86.00;;;;;;5078666;28;19942;-76
2022/09/28 11:06:04;;;;;;;;;;;15.20;86.70;;;;;;5064973;28;20654;-77
2022/09/28 11:08:42;;;;;;;;;;;15.30;81.20;;;;;;5067591;28;19948;-76
2022/09/28 11:11:15;;;;;;;;;;;15.20;79.50;;;;;;5075818;28;19918;-76
2022/09/28 11:13:44;;;;;;;;;;;15.30;78.40;;;;;;5076045;28;19912;-78
2022/09/28 11:16:36;;;;;;;;;;;15.40;78.00;;;;;;5068659;28;19912;-76
2022/09/28 11:19:25;;;;;;;;;;;15.40;78.00;;;;;;5076958;28;20439;-76
2022/09/28 11:21:50;;;;;;;;;;;15.50;79.10;;;;;;5072760;28;19920;-76
2022/09/28 11:24:16;;;;;;;;;;;15.90;78.50;;;;;;5087971;28;20415;-77
2022/09/28 11:26:43;;;;;;;;;;;16.10;75.00;;;;;;5089122;28;19976;-76
2022/09/28 11:29:23;;;;;;;;;;;16.00;73.50;;;;;;5087060;28;19920;-76
2022/09/28 11:31:49;;;;;;;;;;;15.70;73.80;;;;;;5087017;28;19913;-76
2022/09/28 11:34:21;;;;;;;;;;;15.60;76.00;;;;;;5068130;28;19936;-76
2022/09/28 11:37:06;;;;;;;;;;;15.60;76.50;;;;;;5077919;28;19916;-76
2022/09/28 11:39:39;;;;;;;;;;;15.70;76.80;;;;;;5058239;28;19912;-77
2022/09/28 11:42:05;;;;;;;;;;;15.50;77.10;;;;;;5081538;28;19974;-75
2022/09/28 11:44:40;;;;;;;;;;;15.60;76.90;;;;;;5083985;28;19913;-77
2022/09/28 11:47:24;;;;;;;;;;;15.70;78.00;;;;;;5093646;28;19913;-77
2022/09/28 11:49:53;;;;;;;;;;;15.60;78.20;;;;;;5083498;28;19913;-76
2022/09/28 11:52:21;;;;;;;;;;;15.50;78.30;;;;;;5086686;28;19938;-76
2022/09/28 11:54:50;;;;;;;;;;;15.40;79.90;;;;;;5084414;28;19935;-76
2022/09/28 11:57:21;;;;;;;;;;;15.40;80.00;;;;;;5093351;28;20451;-76
2022/09/28 11:59:47;;;;;;;;;;;15.40;79.30;;;;;;5073260;28;19913;-76
2022/09/28 12:02:13;;;;;;;;;;;15.40;77.60;;;;;;5079086;28;19921;-78
2022/09/28 12:04:47;;;;;;;;;;;15.40;76.10;;;;;;5062378;28;20379;-75
2022/09/28 12:07:22;;;;;;;;;;;15.40;75.80;;;;;;5075664;28;20008;-75
2022/09/28 12:10:20;;;;;;;;;;;15.60;74.80;;;;;;5071210;28;19913;-76
2022/09/28 12:12:51;;;;;;;;;;;15.70;74.70;;;;;;5037478;28;19912;-77
2022/09/28 12:15:18;;;;;;;;;;;16.00;73.10;;;;;;5067763;28;20003;-75
2022/09/28 12:17:55;;;;;;;;;;;16.30;73.30;;;;;;5077196;28;19917;-78
2022/09/28 12:20:25;;;;;;;;;;;16.50;70.20;;;;;;5074377;28;19973;-77
2022/09/28 12:22:54;;;;;;;;;;;16.50;69.20;;;;;;5073148;28;19942;-76
2022/09/28 12:25:21;;;;;;;;;;;16.30;70.30;;;;;;5077610;28;19921;-78
2022/09/28 12:27:58;;;;;;;;;;;16.10;70.10;;;;;;5077241;28;19973;-78
2022/09/28 12:30:25;;;;;;;;;;;16.10;70.40;;;;;;5091884;28;19923;-77
2022/09/28 12:33:06;;;;;;;;;;;15.90;71.70;;;;;;5073856;28;19921;-77
2022/09/28 12:35:53;;;;;;;;;;;15.80;72.90;;;;;;5073533;28;19917;-76
2022/09/28 12:38:37;;;;;;;;;;;15.80;72.30;;;;;;5077567;28;19912;-75
2022/09/28 12:41:12;;;;;;;;;;;15.90;72.10;;;;;;5083399;28;19958;-76
2022/09/28 12:43:53;;;;;;;;;;;16.10;68.80;;;;;;5076653;28;19923;-77
2022/09/28 12:46:29;;;;;;;;;;;16.20;71.10;;;;;;5077927;28;19913;-78
2022/09/28 12:49:00;;;;;;;;;;;16.10;69.20;;;;;;5090684;28;19948;-77
2022/09/28 12:51:36;;;;;;;;;;;16.10;71.90;;;;;;5087279;28;19913;-77
2022/09/28 12:54:21;;;;;;;;;;;16.30;71.10;;;;;;5086141;28;20044;-77
2022/09/28 12:57:05;;;;;;;;;;;16.40;71.10;;;;;;5085327;28;19917;-76
2022/09/28 12:59:33;;;;;;;;;;;16.50;65.50;;;;;;5082816;28;19912;-77
2022/09/28 13:02:17;;;;;;;;;;;16.60;65.80;;;;;;5074002;28;19920;-76
2022/09/28 13:04:58;;;;;;;;;;;16.50;65.70;;;;;;5077979;28;19916;-77
2022/09/28 13:07:32;;;;;;;;;;;16.40;66.80;;;;;;5089066;28;19916;-77
2022/09/28 13:10:21;;;;;;;;;;;16.60;64.70;;;;;;5089493;28;19927;-77
2022/09/28 13:12:55;;;;;;;;;;;16.70;66.10;;;;;;5088278;28;19920;-76
2022/09/28 13:15:34;;;;;;;;;;;16.50;67.40;;;;;;5099707;28;19918;-76
2022/09/28 13:18:07;;;;;;;;;;;16.60;68.70;;;;;;5095657;28;19927;-76
2022/09/28 13:21:02;;;;;;;;;;;16.60;67.00;;;;;;5077029;28;19951;-76
2022/09/28 13:23:32;;;;;;;;;;;16.70;68.10;;;;;;5077199;28;19974;-75
2022/09/28 13:26:03;;;;;;;;;;;16.90;67.30;;;;;;5083100;28;19913;-76
2022/09/28 13:28:30;;;;;;;;;;;17.00;64.10;;;;;;5085361;28;20388;-76
2022/09/28 13:30:56;;;;;;;;;;;17.10;63.70;;;;;;5082086;28;19962;-77
2022/09/28 13:33:27;;;;;;;;;;;17.20;63.20;;;;;;5087742;28;19920;-77
2022/09/28 13:35:53;;;;;;;;;;;16.80;63.70;;;;;;5094383;28;19954;-76
2022/09/28 13:38:19;;;;;;;;;;;16.70;63.30;;;;;;5092678;28;19979;-76
2022/09/28 13:41:03;;;;;;;;;;;16.50;64.40;;;;;;5085331;28;19912;-76
2022/09/28 13:43:44;;;;;;;;;;;16.40;65.60;;;;;;5104482;28;20184;-76
2022/09/28 13:46:28;;;;;;;;;;;16.40;66.10;;;;;;5089117;28;19967;-75
2022/09/28 13:48:57;;;;;;;;;;;16.40;68.10;;;;;;5099775;28;20010;-76
2022/09/28 13:51:29;;;;;;;;;;;16.00;71.50;;;;;;5093384;28;19912;-76
2022/09/28 13:54:15;;;;;;;;;;;15.90;72.30;;;;;;5072971;28;19921;-77
2022/09/28 13:56:43;;;;;;;;;;;15.70;74.90;;;;;;5082717;28;19962;-77
2022/09/28 13:59:09;;;;;;;;;;;15.60;76.10;;;;;;5089667;28;19919;-76
2022/09/28 14:01:38;;;;;;;;;;;15.50;77.00;;;;;;5089364;28;19928;-76
2022/09/28 14:04:20;;;;;;;;;;;15.40;78.10;;;;;;5083117;28;19920;-75
2022/09/28 14:07:07;;;;;;;;;;;15.20;78.90;;;;;;5081394;28;19913;-76
2022/09/28 14:10:08;;;;;;;;;;;15.00;79.60;;;;;;5087891;28;19919;-75
2022/09/28 14:12:33;;;;;;;;;;;15.00;80.20;;;;;;5086361;28;19912;-76
2022/09/28 14:14:59;;;;;;;;;;;15.20;78.80;;;;;;5083177;28;19916;-76
2022/09/28 14:17:27;;;;;;;;;;;15.00;77.90;;;;;;5084320;28;19913;-76
2022/09/28 14:19:53;;;;;;;;;;;15.00;78.40;;;;;;5081544;28;19912;-76
2022/09/28 14:22:26;;;;;;;;;;;15.10;77.60;;;;;;5087786;28;19999;-76
2022/09/28 14:25:05;;;;;;;;;;;15.10;77.80;;;;;;5094302;28;19918;-77
2022/09/28 14:27:50;;;;;;;;;;;15.30;77.40;;;;;;5090064;28;19959;-76
2022/09/28 14:30:20;;;;;;;;;;;15.40;76.40;;;;;;5086240;28;19923;-76
2022/09/28 14:32:51;;;;;;;;;;;15.30;74.10;;;;;;5080649;28;19923;-77
2022/09/28 14:35:30;;;;;;;;;;;15.30;74.60;;;;;;5083018;28;20001;-76
2022/09/28 14:43:36;;;;;;;;;;;14.90;90.60;;;;;;5076650;28;19990;-77
2022/09/28 14:46:14;;;;;;;;;;;15.00;91.80;;;;;;5078849;28;20349;-76
2022/09/28 14:48:47;;;;;;;;;;;14.90;93.20;;;;;;5077887;28;19923;-76
2022/09/28 14:51:36;;;;;;;;;;;14.80;93.90;;;;;;5078575;28;19912;-77
2022/09/28 14:54:05;;;;;;;;;;;14.90;93.20;;;;;;5079555;28;19921;-77
2022/09/28 14:56:32;;;;;;;;;;;14.90;93.90;;;;;;5077696;28;19932;-76